createdAt,value
2023-11-19T00:05:03.563Z,188.75
2023-11-19T00:10:13.009Z,180.50
2023-11-19T00:15:20.338Z,179.50
2023-11-19T00:20:25.860Z,168.50
2023-11-19T00:25:31.148Z,171.50
2023-11-19T00:30:37.244Z,159.75
2023-11-19T00:35:42.405Z,171.25
2023-11-19T00:40:47.585Z,161.00
2023-11-19T00:45:53.488Z,166.00
2023-11-19T00:50:58.652Z,175.50
2023-11-19T00:56:03.911Z,173.00
2023-11-19T01:01:09.194Z,176.75
2023-11-19T01:06:13.999Z,138.50
2023-11-19T01:11:24.860Z,172.25
2023-11-19T01:16:30.158Z,177.25
2023-11-19T01:21:35.207Z,180.75
2023-11-19T01:26:40.433Z,184.25
2023-11-19T01:31:45.827Z,185.00
2023-11-19T01:36:51.488Z,186.50
2023-11-19T01:41:57.220Z,192.25
2023-11-19T01:47:03.314Z,193.25
2023-11-19T01:52:08.699Z,205.50
2023-11-19T01:57:13.938Z,204.50
2023-11-19T02:02:23.022Z,202.75
2023-11-19T02:07:28.191Z,208.50
2023-11-19T02:12:37.517Z,209.00
2023-11-19T02:17:42.516Z,207.25
2023-11-19T02:22:48.188Z,212.25
2023-11-19T02:28:04.136Z,205.75
2023-11-19T02:33:09.081Z,205.00
2023-11-19T02:38:16.789Z,212.25
2023-11-19T02:43:21.902Z,206.50
2023-11-19T02:48:27.431Z,205.25
2023-11-19T02:53:33.356Z,209.50
2023-11-19T02:58:38.626Z,206.00
2023-11-19T03:03:44.536Z,218.00
2023-11-19T03:08:49.436Z,217.25
2023-11-19T03:13:54.310Z,213.50
2023-11-19T03:18:59.623Z,216.25
2023-11-19T03:24:05.459Z,216.75
2023-11-19T03:29:11.695Z,218.00
2023-11-19T03:34:21.602Z,213.75
2023-11-19T03:39:28.002Z,215.00
2023-11-19T03:44:33.346Z,217.00
2023-11-19T03:49:39.586Z,212.25
2023-11-19T03:54:44.855Z,212.75
2023-11-19T03:59:50.688Z,215.50
2023-11-19T04:04:56.076Z,219.75
2023-11-19T04:10:01.490Z,218.75
2023-11-19T04:15:09.074Z,223.75
2023-11-19T04:20:20.593Z,223.50
2023-11-19T04:25:28.761Z,225.75
2023-11-19T04:30:38.352Z,187.00
2023-11-19T04:35:43.896Z,190.50
2023-11-19T04:40:49.498Z,194.25
2023-11-19T04:45:56.325Z,196.50
2023-11-19T04:51:02.029Z,199.50
2023-11-19T04:56:14.352Z,200.50
2023-11-19T05:01:19.728Z,194.25
2023-11-19T05:06:25.037Z,196.25
2023-11-19T05:11:32.042Z,202.25
2023-11-19T05:16:39.134Z,199.00
2023-11-19T05:21:47.936Z,198.75
2023-11-19T05:26:53.513Z,198.00
2023-11-19T05:31:59.471Z,201.75
2023-11-19T05:37:05.284Z,198.75
2023-11-19T05:42:13.025Z,209.25
2023-11-19T05:47:22.199Z,205.75
2023-11-19T05:52:35.982Z,212.75
2023-11-19T06:02:51.258Z,221.25
2023-11-19T06:07:56.566Z,227.75
2023-11-19T06:13:02.980Z,224.25
2023-11-19T06:18:08.479Z,226.00
2023-11-19T06:23:13.854Z,236.25
2023-11-19T06:28:19.832Z,231.25
2023-11-19T06:33:26.394Z,228.00
2023-11-19T06:38:33.221Z,233.75
2023-11-19T06:48:48.726Z,229.00
2023-11-19T06:53:54.482Z,224.75
2023-11-19T06:59:00.866Z,228.50
2023-11-19T07:04:15.709Z,227.00
2023-11-19T07:09:21.396Z,238.50
2023-11-19T07:14:28.155Z,240.25
2023-11-19T07:19:33.832Z,247.50
2023-11-19T07:24:39.693Z,254.75
2023-11-19T07:29:47.382Z,250.50
2023-11-19T07:34:55.141Z,247.50
2023-11-19T07:40:01.623Z,257.75
2023-11-19T07:45:08.279Z,262.75
2023-11-19T07:50:17.779Z,272.00
2023-11-19T07:55:23.864Z,274.25
2023-11-19T08:00:29.484Z,278.50
2023-11-19T08:05:35.316Z,276.00
2023-11-19T08:10:40.787Z,278.00
2023-11-19T08:15:49.644Z,280.25
2023-11-19T08:20:57.015Z,288.00
2023-11-19T08:26:02.626Z,280.00
2023-11-19T08:31:08.605Z,287.00
2023-11-19T08:36:18.924Z,271.75
2023-11-19T08:41:26.193Z,277.00
2023-11-19T08:46:31.733Z,283.50
2023-11-19T08:51:37.338Z,279.25
2023-11-19T08:56:43.085Z,287.25
2023-11-19T09:01:48.515Z,291.50
2023-11-19T09:06:54.041Z,286.25
2023-11-19T09:12:00.466Z,279.50
2023-11-19T09:17:07.181Z,284.75
2023-11-19T09:22:12.473Z,281.50
2023-11-19T09:27:19.548Z,282.75
2023-11-19T09:32:28.983Z,257.75
2023-11-19T09:37:34.714Z,274.75
2023-11-19T09:42:47.233Z,298.00
2023-11-19T09:47:55.397Z,335.75
2023-11-19T09:53:00.820Z,327.50
2023-11-19T09:58:07.390Z,360.50
2023-11-19T10:03:17.226Z,339.75
2023-11-19T10:08:24.002Z,329.25
2023-11-19T10:13:32.781Z,312.50
2023-11-19T10:18:41.299Z,325.75
2023-11-19T10:24:03.398Z,369.25
2023-11-19T10:29:10.018Z,432.75
2023-11-19T10:34:27.639Z,458.60
2023-11-19T10:40:07.781Z,458.40
2023-11-19T10:45:28.747Z,472.80
2023-11-19T10:50:33.619Z,484.40
2023-11-19T10:55:43.502Z,499.00
2023-11-19T11:00:53.578Z,481.40
2023-11-19T11:06:00.628Z,480.40
2023-11-19T11:11:09.286Z,469.50
2023-11-19T11:16:16.180Z,514.20
2023-11-19T11:21:26.301Z,457.33
2023-11-19T11:26:50.520Z,456.00
2023-11-19T11:32:06.240Z,457.67
2023-11-19T11:37:16.531Z,450.25
2023-11-19T11:42:25.470Z,456.00
2023-11-19T11:47:49.895Z,453.60
2023-11-19T11:53:02.780Z,461.20
2023-11-19T11:58:18.260Z,450.00
2023-11-19T12:03:29.003Z,449.00
2023-11-19T12:14:02.031Z,450.60
2023-11-19T12:19:11.068Z,437.00
2023-11-19T12:24:18.264Z,413.20
2023-11-19T12:29:26.465Z,419.80
2023-11-19T12:34:35.899Z,409.00
2023-11-19T12:39:40.878Z,403.33
2023-11-19T12:45:07.068Z,408.75
2023-11-19T12:50:13.083Z,402.50
2023-11-19T12:55:47.593Z,394.25
2023-11-19T13:01:02.135Z,379.75
2023-11-19T13:06:14.184Z,372.00
2023-11-19T13:11:35.955Z,373.25
2023-11-19T13:16:41.953Z,369.25
2023-11-19T13:21:49.928Z,353.75
2023-11-19T13:26:55.077Z,349.50
2023-11-19T13:32:06.730Z,341.50
2023-11-19T13:37:12.022Z,328.25
2023-11-19T13:42:20.737Z,328.75
2023-11-19T13:47:26.829Z,324.75
2023-11-19T13:52:33.540Z,314.50
2023-11-19T13:57:39.136Z,304.25
2023-11-19T14:02:46.510Z,303.25
2023-11-19T14:07:58.081Z,294.75
2023-11-19T14:13:04.161Z,290.75
2023-11-19T14:18:13.230Z,293.00
2023-11-19T14:23:21.425Z,277.75
2023-11-19T14:28:27.884Z,273.75
2023-11-19T14:33:38.761Z,274.75
2023-11-19T14:38:46.725Z,256.50
2023-11-19T14:43:53.407Z,256.00
2023-11-19T14:48:59.294Z,252.25
2023-11-19T14:54:07.057Z,246.00
2023-11-19T14:59:12.378Z,244.25
2023-11-19T15:04:19.877Z,235.25
2023-11-19T15:09:25.372Z,227.50
2023-11-19T15:14:35.684Z,226.50
2023-11-19T15:19:41.876Z,221.00
2023-11-19T15:24:47.483Z,211.75
2023-11-19T15:29:52.952Z,212.50
2023-11-19T15:35:06.274Z,207.00
2023-11-19T15:40:13.694Z,206.25
2023-11-19T15:45:19.277Z,197.25
2023-11-19T15:50:24.942Z,190.25
2023-11-19T15:55:31.028Z,187.25
2023-11-19T16:00:36.508Z,185.25
2023-11-19T16:05:42.026Z,181.00
2023-11-19T16:10:48.879Z,179.75
2023-11-19T16:15:56.430Z,177.00
2023-11-19T16:21:03.570Z,170.25
2023-11-19T16:26:09.051Z,167.00
2023-11-19T16:31:14.470Z,160.00
2023-11-19T16:36:20.145Z,152.50
2023-11-19T16:46:35.455Z,153.25
2023-11-19T16:51:41.006Z,146.50
2023-11-19T16:56:46.248Z,148.75
2023-11-19T17:01:53.234Z,141.25
2023-11-19T17:06:59.282Z,140.75
2023-11-19T17:12:04.450Z,140.00
2023-11-19T17:17:09.600Z,136.00
2023-11-19T17:22:14.874Z,137.33
2023-11-19T17:27:19.797Z,133.67
2023-11-19T17:32:25.329Z,127.67
2023-11-19T17:37:31.218Z,125.00
2023-11-19T17:42:36.473Z,123.33
2023-11-19T17:47:41.698Z,124.00
2023-11-19T17:52:46.752Z,122.67
2023-11-19T17:57:53.361Z,116.00
2023-11-19T18:02:59.057Z,121.67
2023-11-19T18:08:03.954Z,116.67
2023-11-19T18:13:11.548Z,105.33
2023-11-19T18:18:16.635Z,111.00
2023-11-19T18:23:22.511Z,97.33
2023-11-19T18:28:28.854Z,106.00
2023-11-19T18:33:34.136Z,100.00
2023-11-19T18:38:43.583Z,99.00
2023-11-19T18:43:48.477Z,99.67
2023-11-19T18:48:54.726Z,90.50
2023-11-19T18:54:01.093Z,90.50
2023-11-19T18:59:06.076Z,86.00
2023-11-19T19:04:12.326Z,85.50
2023-11-19T19:09:17.097Z,84.25
2023-11-19T19:14:21.888Z,84.25
2023-11-19T19:19:26.881Z,78.75
2023-11-19T19:24:31.524Z,81.75
2023-11-19T19:29:36.221Z,81.00
2023-11-19T19:34:41.389Z,75.25
2023-11-19T19:39:46.180Z,74.50
2023-11-19T19:44:50.829Z,75.75
2023-11-19T19:49:55.562Z,69.50
2023-11-19T19:55:00.655Z,73.00
2023-11-19T20:00:14.927Z,71.75
2023-11-19T20:05:21.796Z,65.25
2023-11-19T20:10:26.640Z,61.75
2023-11-19T20:15:31.814Z,62.25
2023-11-19T20:20:39.058Z,57.50
2023-11-19T20:25:44.880Z,58.75
2023-11-19T20:30:49.493Z,59.00
2023-11-19T20:35:55.160Z,52.75
2023-11-19T20:41:00.479Z,56.25
2023-11-19T20:46:06.717Z,55.50
2023-11-19T20:51:12.466Z,54.75
2023-11-19T20:56:17.197Z,53.25
2023-11-19T21:01:23.255Z,49.75
2023-11-19T21:06:27.836Z,53.75
2023-11-19T21:11:32.434Z,50.75
2023-11-19T21:16:37.390Z,49.00
2023-11-19T21:21:42.685Z,49.00
2023-11-19T21:26:48.181Z,48.75
2023-11-19T21:31:55.735Z,47.75
2023-11-19T21:37:00.492Z,49.00
2023-11-19T21:42:05.026Z,48.75
2023-11-19T21:47:09.533Z,45.50
2023-11-19T21:52:14.141Z,49.50
2023-11-19T21:57:19.274Z,47.25
2023-11-19T22:02:25.158Z,48.25
2023-11-19T22:07:33.275Z,44.25
2023-11-19T22:12:44.410Z,46.25
2023-11-19T22:17:55.607Z,44.25
2023-11-19T22:23:02.027Z,44.50
2023-11-19T22:28:20.624Z,43.50
2023-11-19T22:33:30.783Z,42.75
2023-11-19T22:38:36.198Z,42.25
2023-11-19T22:43:41.266Z,40.00
2023-11-19T22:48:46.485Z,39.25
2023-11-19T22:53:53.240Z,40.25
2023-11-19T22:58:59.802Z,41.50
2023-11-19T23:04:04.915Z,38.75
2023-11-19T23:09:10.310Z,40.00
2023-11-19T23:14:15.837Z,38.75
2023-11-19T23:19:21.245Z,36.00
2023-11-19T23:24:26.498Z,36.50
2023-11-19T23:29:31.581Z,38.50
2023-11-19T23:39:44.518Z,36.50
2023-11-19T23:44:49.868Z,34.75
2023-11-19T23:49:54.841Z,34.25
2023-11-19T23:55:01.045Z,37.25
